Capitol Logistics 409


KRFD
Chicago/Rockford International Airport
Rockford, Illinois, US
KTUL
Tulsa International Airport
Tulsa, Oklahoma, US

Activity Log

Date Flight Route Aircraft Duration
01/29/2019 CPX409 BDF J105 SGF VINTA2 B752 1h 41m
01/19/2019 CPX409 BDF J105 SGF VINTA2 B752 1h 34m

Route Details

Aircraft Information
Primary: Boeing 757-200SF
Backup: Boeing 737-800BCF
Route Data
Distance: 479nm
Sched. Duration: 1h 30m
Avg. Duration: 1h 37m (+8m)
Times Flown: 2
Recm'd Route: BDF J105 SGF VINTA2
Planned Altitude: 37,000ft
Origin Wx: KRFD 061054Z 00000KT 10SM SCT140 BKN180 01/M06 A3012 RMK AO2 SLP203 T00111061 $
Dest. Wx: KTUL 061053Z 16008KT 10SM BKN014 OVC022 16/14 A2997 RMK AO2 SLP144 T01610139
Notes:

Financial History
Total Freight: 106,738lbs
Average Load: 53,369lbs/flt
Fuel Used: 13,874lbs
Avg. Fuel Used: 6,937lbs/flt
Fuel Expense: $9,712
Avg. Fuel Expense: $4,856
Avg. Fuel Cost: $0.70/lbs
Total Gross Income: $133,423
Pilot Pay: $298
Total Expenses: $14,514
Total Revenue: $108,683
Average Revenue: $66,711.25